Time;durP1;ratioP1;P1;durP2;ratioP2;P2;SDS_P1;SDS_P2;PMS_P1;PMS_P2;Temp;Humidity;BMP_temperature;BMP_pressure;BME280_temperature;BME280_humidity;BME280_pressure;Samples;Min_cycle;Max_cycle;Signal;HPM_P1;HPM_P2
2023/10/25 00:02:02;;;;;;;0.80;0.60;;;12.30;99.90;;;;;;4408018;32;20514;-61
2023/10/25 00:04:27;;;;;;;1.60;0.70;;;12.30;99.90;;;;;;4406049;32;20428;-62
2023/10/25 00:06:53;;;;;;;2.70;0.88;;;12.30;99.90;;;;;;4404216;32;20346;-60
2023/10/25 00:09:18;;;;;;;1.30;0.60;;;12.30;99.90;;;;;;4407603;32;20434;-62
2023/10/25 00:11:44;;;;;;;0.82;0.62;;;12.30;99.90;;;;;;4404441;32;20078;-61
2023/10/25 00:14:09;;;;;;;0.82;0.75;;;12.30;99.90;;;;;;4407250;32;20129;-61
2023/10/25 00:16:35;;;;;;;0.75;0.50;;;12.30;99.90;;;;;;4405464;32;20442;-61
2023/10/25 00:19:00;;;;;;;0.62;0.62;;;12.20;99.90;;;;;;4404685;32;20070;-61
2023/10/25 00:21:26;;;;;;;2.72;0.93;;;12.30;99.90;;;;;;4408214;32;20086;-61
2023/10/25 00:23:51;;;;;;;1.75;1.02;;;12.30;99.90;;;;;;4407313;32;20082;-62
2023/10/25 00:26:17;;;;;;;0.52;0.52;;;12.30;99.90;;;;;;4408648;32;20113;-61
2023/10/25 00:28:42;;;;;;;0.60;0.60;;;12.30;99.90;;;;;;4405831;32;20081;-61
2023/10/25 00:31:08;;;;;;;0.60;0.60;;;12.30;99.90;;;;;;4406717;32;20467;-60
2023/10/25 00:33:33;;;;;;;0.40;0.40;;;12.30;99.90;;;;;;4405621;32;20826;-61
2023/10/25 00:35:59;;;;;;;0.73;0.68;;;12.30;99.90;;;;;;4405063;32;20062;-61
2023/10/25 00:38:24;;;;;;;0.52;0.52;;;12.30;99.90;;;;;;4399794;32;20065;-62
2023/10/25 00:40:49;;;;;;;1.50;0.95;;;12.30;99.90;;;;;;4406202;32;20073;-62
2023/10/25 00:43:20;;;;;;;0.80;0.60;;;12.30;99.90;;;;;;4407263;32;20070;-61
2023/10/25 00:46:01;;;;;;;0.75;0.75;;;12.30;99.90;;;;;;4400737;32;20093;-61
2023/10/25 00:48:28;;;;;;;0.85;0.45;;;12.30;99.90;;;;;;4398748;32;20144;-61
2023/10/25 00:50:54;;;;;;;0.40;0.37;;;12.30;99.90;;;;;;4404174;32;20093;-62
2023/10/25 00:53:20;;;;;;;0.60;0.60;;;12.30;99.90;;;;;;4405644;32;20082;-61
2023/10/25 00:55:47;;;;;;;0.50;0.50;;;12.40;99.90;;;;;;4393130;32;20497;-62
2023/10/25 00:58:13;;;;;;;1.85;1.02;;;12.30;99.90;;;;;;4397022;32;20097;-62
2023/10/25 01:00:39;;;;;;;0.70;0.70;;;12.30;99.90;;;;;;4402779;32;20074;-60
2023/10/25 01:03:07;;;;;;;0.40;0.40;;;12.30;99.90;;;;;;4405198;32;20634;-61
2023/10/25 01:05:32;;;;;;;1.85;0.60;;;12.30;99.90;;;;;;4391606;32;20089;-63
2023/10/25 01:07:58;;;;;;;0.60;0.60;;;12.30;99.90;;;;;;4400065;32;20115;-61
2023/10/25 01:10:23;;;;;;;0.30;0.30;;;12.30;99.90;;;;;;4405127;32;20081;-62
2023/10/25 01:12:49;;;;;;;0.73;0.73;;;12.40;99.90;;;;;;4405961;32;20103;-62
2023/10/25 01:15:14;;;;;;;0.60;0.60;;;12.30;99.90;;;;;;4406277;32;20090;-61
2023/10/25 01:17:40;;;;;;;5.07;0.80;;;12.30;99.90;;;;;;4401002;32;20097;-62
2023/10/25 01:20:06;;;;;;;0.52;0.52;;;12.30;99.90;;;;;;4405846;32;20386;-62
2023/10/25 01:22:31;;;;;;;0.68;0.68;;;12.30;99.90;;;;;;4407781;32;20616;-62
2023/10/25 01:24:57;;;;;;;0.40;0.40;;;12.30;99.90;;;;;;4403193;32;20073;-61
2023/10/25 01:27:22;;;;;;;2.53;0.90;;;12.30;99.90;;;;;;4405855;32;20074;-62
2023/10/25 01:29:48;;;;;;;0.60;0.60;;;12.30;99.90;;;;;;4403695;32;20136;-62
2023/10/25 01:32:13;;;;;;;0.30;0.30;;;12.30;99.90;;;;;;4406871;32;20558;-62
2023/10/25 01:34:39;;;;;;;0.40;0.40;;;12.30;99.90;;;;;;4403723;32;20070;-60
2023/10/25 01:37:04;;;;;;;0.40;0.40;;;12.30;99.90;;;;;;4401629;32;20097;-63
2023/10/25 01:39:29;;;;;;;0.40;0.40;;;12.30;99.90;;;;;;4405262;32;20485;-59
2023/10/25 01:41:55;;;;;;;0.50;0.50;;;12.20;99.90;;;;;;4409875;32;20085;-62
2023/10/25 01:44:21;;;;;;;2.28;0.43;;;12.30;99.90;;;;;;4408997;32;20091;-60
2023/10/25 01:46:46;;;;;;;0.50;0.50;;;12.30;99.90;;;;;;4406459;32;20069;-61
2023/10/25 01:49:11;;;;;;;0.40;0.40;;;12.30;99.90;;;;;;4402990;32;20150;-61
2023/10/25 01:51:37;;;;;;;0.47;0.47;;;12.20;99.90;;;;;;4407649;32;20513;-60
2023/10/25 01:54:02;;;;;;;0.52;0.52;;;12.20;99.90;;;;;;4408360;32;20149;-63
2023/10/25 01:56:28;;;;;;;0.60;0.60;;;12.30;99.90;;;;;;4400878;32;20089;-61
2023/10/25 01:58:54;;;;;;;0.88;0.70;;;12.20;99.90;;;;;;4402735;32;20532;-62
2023/10/25 02:01:19;;;;;;;0.50;0.50;;;12.20;99.90;;;;;;4404108;32;20558;-61
2023/10/25 02:03:45;;;;;;;0.40;0.40;;;12.20;99.90;;;;;;4408316;32;20070;-62
2023/10/25 02:06:12;;;;;;;0.52;0.52;;;12.20;99.90;;;;;;4408013;32;20106;-61
2023/10/25 02:08:38;;;;;;;0.50;0.50;;;12.20;99.90;;;;;;4406620;32;20569;-61
2023/10/25 02:11:03;;;;;;;0.60;0.60;;;12.20;99.90;;;;;;4406251;32;20231;-61
2023/10/25 02:13:29;;;;;;;0.40;0.40;;;12.20;99.90;;;;;;4411598;32;20098;-61
2023/10/25 02:15:54;;;;;;;0.73;0.50;;;12.10;99.90;;;;;;4406824;32;20086;-62
2023/10/25 02:18:20;;;;;;;0.75;0.75;;;12.10;99.90;;;;;;4397867;32;20088;-61
2023/10/25 02:20:45;;;;;;;0.50;0.50;;;12.10;99.90;;;;;;4406122;32;20073;-61
2023/10/25 02:23:11;;;;;;;0.60;0.60;;;12.10;99.90;;;;;;4411283;32;20089;-60
2023/10/25 02:25:36;;;;;;;0.50;0.50;;;12.00;99.90;;;;;;4405321;32;20097;-61
2023/10/25 02:28:02;;;;;;;0.88;0.75;;;12.00;99.90;;;;;;4403416;32;20529;-61
2023/10/25 02:30:27;;;;;;;1.25;0.95;;;12.00;99.90;;;;;;4409483;32;21276;-61
2023/10/25 02:32:53;;;;;;;0.68;0.68;;;12.00;99.90;;;;;;4407084;32;20101;-62
2023/10/25 02:35:18;;;;;;;1.30;0.70;;;12.00;99.90;;;;;;4407978;32;20098;-61
2023/10/25 02:37:44;;;;;;;1.30;1.20;;;12.00;99.90;;;;;;4398124;32;20054;-61
2023/10/25 02:40:10;;;;;;;0.50;0.50;;;12.00;99.90;;;;;;4402956;32;20158;-60
2023/10/25 02:42:35;;;;;;;0.65;0.65;;;12.00;99.90;;;;;;4407595;32;20081;-62
2023/10/25 02:45:01;;;;;;;2.12;1.00;;;11.90;99.90;;;;;;4409542;32;20089;-62
2023/10/25 02:47:26;;;;;;;0.32;0.32;;;11.90;99.90;;;;;;4403778;32;20070;-60
2023/10/25 02:49:52;;;;;;;8.18;2.00;;;11.90;99.90;;;;;;4405637;32;20086;-61
2023/10/25 02:52:17;;;;;;;0.60;0.60;;;11.90;99.90;;;;;;4404536;32;20078;-61
2023/10/25 02:54:43;;;;;;;0.60;0.60;;;11.90;99.90;;;;;;4407799;32;20097;-60
2023/10/25 02:57:08;;;;;;;1.55;0.68;;;11.90;99.90;;;;;;4400726;32;20081;-61
2023/10/25 02:59:34;;;;;;;3.53;1.45;;;11.90;99.90;;;;;;4405984;32;20093;-60
2023/10/25 03:02:00;;;;;;;0.70;0.70;;;11.90;99.90;;;;;;4410657;32;20066;-60
2023/10/25 03:04:26;;;;;;;0.85;0.70;;;12.00;99.90;;;;;;4408244;32;20123;-61
2023/10/25 03:06:51;;;;;;;0.65;0.65;;;12.00;99.90;;;;;;4403404;32;20518;-61
2023/10/25 03:09:17;;;;;;;1.35;0.77;;;12.00;99.90;;;;;;4409943;32;20181;-61
2023/10/25 03:11:42;;;;;;;0.60;0.60;;;12.00;99.90;;;;;;4406800;32;20082;-61
2023/10/25 03:14:08;;;;;;;0.80;0.60;;;12.00;99.90;;;;;;4390664;32;20117;-60
2023/10/25 03:16:33;;;;;;;0.40;0.40;;;11.90;99.90;;;;;;4404687;32;20090;-61
2023/10/25 03:18:59;;;;;;;5.10;0.75;;;11.90;99.90;;;;;;4403445;32;21212;-61
2023/10/25 03:21:24;;;;;;;13.13;3.33;;;11.90;99.90;;;;;;4406679;32;20074;-60
2023/10/25 03:23:50;;;;;;;2.42;1.15;;;11.90;99.90;;;;;;4408876;32;20077;-60
2023/10/25 03:26:16;;;;;;;0.68;0.68;;;11.80;99.90;;;;;;4407073;32;20128;-60
2023/10/25 03:28:41;;;;;;;0.50;0.50;;;11.90;99.90;;;;;;4407132;32;20086;-61
2023/10/25 03:31:08;;;;;;;0.75;0.52;;;11.90;99.90;;;;;;4406902;32;20065;-61
2023/10/25 03:33:34;;;;;;;1.40;0.90;;;11.90;99.90;;;;;;4405845;32;20076;-61
2023/10/25 03:36:00;;;;;;;3.00;1.00;;;11.80;99.90;;;;;;4390862;32;20128;-62
2023/10/25 03:38:26;;;;;;;0.60;0.60;;;11.90;99.90;;;;;;4397556;32;20117;-58
2023/10/25 03:41:07;;;;;;;0.70;0.70;;;11.80;99.90;;;;;;4405923;32;20443;-60
2023/10/25 03:43:35;;;;;;;12.20;2.40;;;11.80;99.90;;;;;;4408604;32;20101;-61
2023/10/25 03:46:08;;;;;;;23.08;0.80;;;11.80;99.90;;;;;;4407438;32;20101;-61
2023/10/25 03:48:34;;;;;;;1.80;1.10;;;11.80;99.90;;;;;;4404022;32;20078;-61
2023/10/25 03:51:09;;;;;;;0.73;0.73;;;11.80;99.90;;;;;;4405743;32;20090;-60
2023/10/25 03:53:36;;;;;;;1.75;0.75;;;11.70;99.90;;;;;;4395511;32;20422;-60
2023/10/25 03:56:01;;;;;;;1.23;0.88;;;11.70;99.90;;;;;;4405880;32;20553;-62
2023/10/25 03:58:27;;;;;;;0.90;0.90;;;11.70;99.90;;;;;;4396781;32;20140;-60
2023/10/25 04:01:01;;;;;;;0.57;0.43;;;11.70;99.90;;;;;;4408907;32;20128;-61
2023/10/25 04:03:27;;;;;;;0.40;0.40;;;11.70;99.90;;;;;;4408170;32;20176;-61
2023/10/25 04:05:53;;;;;;;0.50;0.50;;;11.70;99.90;;;;;;4407629;32;20090;-60
2023/10/25 04:08:19;;;;;;;0.70;0.60;;;11.60;99.90;;;;;;4384073;32;20459;-60
2023/10/25 04:11:00;;;;;;;0.40;0.40;;;11.60;99.90;;;;;;4398608;32;20065;-61
2023/10/25 04:13:26;;;;;;;0.60;0.60;;;11.60;99.90;;;;;;4406666;32;20076;-61
2023/10/25 04:16:01;;;;;;;0.85;0.52;;;11.50;99.90;;;;;;4408551;32;20466;-61
2023/10/25 04:18:28;;;;;;;10.05;0.93;;;11.50;99.90;;;;;;4396372;32;20651;-61
2023/10/25 04:20:55;;;;;;;0.68;0.68;;;11.40;99.90;;;;;;4405772;32;20541;-61
2023/10/25 04:23:22;;;;;;;0.40;0.40;;;11.30;99.90;;;;;;4405446;32;20547;-60
2023/10/25 04:25:47;;;;;;;0.45;0.45;;;11.30;99.90;;;;;;4407444;32;20149;-62
2023/10/25 04:28:13;;;;;;;0.57;0.57;;;11.20;99.90;;;;;;4394306;32;20132;-61
2023/10/25 04:30:39;;;;;;;1.20;1.10;;;11.10;99.90;;;;;;4406895;32;20125;-61
2023/10/25 04:33:04;;;;;;;1.23;0.80;;;11.00;99.90;;;;;;4405975;32;20081;-61
2023/10/25 04:35:30;;;;;;;1.33;0.77;;;11.00;99.90;;;;;;4403774;32;20101;-60
2023/10/25 04:37:56;;;;;;;0.85;0.75;;;11.10;99.90;;;;;;4396134;32;20143;-61
2023/10/25 04:40:21;;;;;;;0.82;0.80;;;11.10;99.90;;;;;;4404829;32;20536;-60
2023/10/25 04:42:50;;;;;;;0.80;0.75;;;11.10;99.90;;;;;;4409317;32;20065;-61
2023/10/25 04:45:16;;;;;;;0.70;0.70;;;11.10;99.90;;;;;;4406743;32;20084;-59
2023/10/25 04:47:41;;;;;;;4.03;1.40;;;11.10;99.90;;;;;;4407145;32;20094;-61
2023/10/25 04:50:07;;;;;;;0.73;0.73;;;11.00;99.90;;;;;;4404077;32;20424;-60
2023/10/25 04:52:32;;;;;;;0.85;0.80;;;11.00;99.90;;;;;;4405662;32;20573;-61
2023/10/25 04:54:58;;;;;;;0.75;0.55;;;11.00;99.90;;;;;;4407015;32;20747;-61
2023/10/25 04:57:23;;;;;;;2.37;0.85;;;11.00;99.90;;;;;;4398873;32;20079;-60
2023/10/25 04:59:49;;;;;;;1.05;0.85;;;11.00;99.90;;;;;;4403916;32;20106;-61
2023/10/25 05:02:14;;;;;;;39.20;1.70;;;11.00;99.90;;;;;;4407815;32;20074;-61
2023/10/25 05:04:40;;;;;;;0.45;0.45;;;11.00;99.90;;;;;;4401088;32;20418;-61
2023/10/25 05:07:06;;;;;;;0.50;0.50;;;11.00;99.90;;;;;;4403902;32;20391;-61
2023/10/25 05:09:32;;;;;;;0.80;0.80;;;11.00;99.90;;;;;;4403532;32;20085;-61
2023/10/25 05:12:03;;;;;;;0.82;0.82;;;11.00;99.90;;;;;;4405489;32;20402;-62
2023/10/25 05:14:29;;;;;;;0.80;0.80;;;10.90;99.90;;;;;;4407649;32;20085;-61
2023/10/25 05:16:54;;;;;;;5.65;1.87;;;10.90;99.90;;;;;;4400275;32;20128;-62
2023/10/25 05:19:20;;;;;;;2.75;1.35;;;11.00;99.90;;;;;;4406317;32;20079;-60
2023/10/25 05:21:49;;;;;;;2.53;1.65;;;11.00;99.90;;;;;;4410328;32;20431;-60
2023/10/25 05:24:16;;;;;;;1.60;1.48;;;11.10;99.90;;;;;;4405938;32;20073;-60
2023/10/25 05:26:42;;;;;;;2.08;0.85;;;11.10;99.90;;;;;;4408456;32;20485;-62
2023/10/25 05:29:08;;;;;;;2.83;1.00;;;11.10;99.90;;;;;;4409509;32;20156;-60
2023/10/25 05:31:34;;;;;;;0.80;0.80;;;11.10;99.90;;;;;;4405164;32;20549;-61
2023/10/25 05:34:01;;;;;;;2.08;1.05;;;11.10;99.90;;;;;;4390733;32;20101;-61
2023/10/25 05:36:26;;;;;;;6.60;1.60;;;11.00;99.90;;;;;;4404117;32;20209;-61
2023/10/25 05:38:52;;;;;;;0.70;0.70;;;11.00;99.90;;;;;;4403991;32;20913;-60
2023/10/25 05:41:20;;;;;;;0.68;0.68;;;11.00;99.90;;;;;;4406874;32;20549;-61
2023/10/25 05:43:57;;;;;;;0.73;0.73;;;11.00;99.90;;;;;;4409027;32;20065;-62
2023/10/25 05:46:22;;;;;;;1.27;0.88;;;11.00;99.90;;;;;;4407153;32;20105;-61
2023/10/25 05:48:48;;;;;;;0.90;0.82;;;11.00;99.90;;;;;;4406637;32;20110;-61
2023/10/25 05:51:14;;;;;;;1.55;0.88;;;11.00;99.90;;;;;;4408338;32;20584;-61
2023/10/25 05:53:39;;;;;;;0.80;0.80;;;11.10;99.90;;;;;;4410841;32;20120;-62
2023/10/25 05:56:05;;;;;;;1.35;1.25;;;11.10;99.90;;;;;;4405841;32;20098;-60
2023/10/25 05:58:31;;;;;;;1.20;0.93;;;11.10;99.90;;;;;;4399938;32;20182;-60
2023/10/25 06:00:56;;;;;;;0.60;0.60;;;11.10;99.90;;;;;;4408583;32;20073;-61
2023/10/25 06:03:22;;;;;;;1.27;0.85;;;11.10;99.90;;;;;;4409783;32;20607;-61
2023/10/25 06:05:52;;;;;;;1.08;0.60;;;11.20;99.90;;;;;;4407861;32;20069;-60
2023/10/25 06:08:18;;;;;;;1.05;0.77;;;11.10;99.90;;;;;;4406741;32;20596;-60
2023/10/25 06:10:44;;;;;;;0.70;0.70;;;11.10;99.90;;;;;;4404872;32;20097;-61
2023/10/25 06:13:10;;;;;;;0.60;0.60;;;11.10;99.90;;;;;;4409518;32;20183;-61
2023/10/25 06:15:36;;;;;;;1.37;0.60;;;11.00;99.90;;;;;;4408542;32;20065;-61
2023/10/25 06:18:07;;;;;;;0.93;0.80;;;11.10;99.90;;;;;;4403053;32;20061;-61
2023/10/25 06:20:33;;;;;;;0.70;0.70;;;11.10;99.90;;;;;;4409318;32;20078;-61
2023/10/25 06:22:58;;;;;;;4.95;1.15;;;11.10;99.90;;;;;;4408781;32;20126;-61
2023/10/25 06:25:24;;;;;;;2.25;0.88;;;11.10;99.90;;;;;;4409786;32;20143;-59
2023/10/25 06:27:50;;;;;;;1.23;0.82;;;11.10;99.90;;;;;;4407590;32;20065;-61
2023/10/25 06:30:15;;;;;;;0.68;0.62;;;11.10;99.90;;;;;;4394076;32;20127;-61
2023/10/25 06:32:41;;;;;;;1.15;1.05;;;11.10;99.90;;;;;;4407361;32;20161;-61
2023/10/25 06:35:06;;;;;;;1.40;0.88;;;11.10;99.90;;;;;;4407479;32;20080;-61
2023/10/25 06:37:32;;;;;;;0.57;0.57;;;11.10;99.90;;;;;;4399769;32;20077;-61
2023/10/25 06:39:58;;;;;;;0.75;0.70;;;11.10;99.90;;;;;;4404814;32;20085;-61
2023/10/25 06:42:23;;;;;;;1.98;0.95;;;11.10;99.90;;;;;;4407029;32;20549;-61
2023/10/25 06:44:50;;;;;;;5.07;1.20;;;11.00;99.90;;;;;;4407482;32;20482;-61
2023/10/25 06:47:16;;;;;;;0.88;0.82;;;11.10;99.90;;;;;;4403828;32;20062;-61
2023/10/25 06:49:42;;;;;;;0.98;0.82;;;11.10;99.90;;;;;;4404939;32;20593;-61
2023/10/25 06:52:08;;;;;;;0.68;0.68;;;11.10;99.90;;;;;;4392021;32;20073;-61
2023/10/25 06:54:34;;;;;;;3.17;1.08;;;11.10;99.90;;;;;;4390611;32;20085;-61
2023/10/25 06:57:00;;;;;;;0.75;0.75;;;11.10;99.90;;;;;;4401359;32;20086;-59
2023/10/25 06:59:26;;;;;;;2.05;1.05;;;11.10;99.90;;;;;;4405372;32;20115;-60
2023/10/25 07:02:00;;;;;;;4.95;1.52;;;11.00;99.90;;;;;;4410322;32;20066;-60
2023/10/25 07:04:28;;;;;;;1.60;0.82;;;11.00;99.90;;;;;;4408553;32;20136;-60
2023/10/25 07:06:55;;;;;;;0.50;0.50;;;10.90;99.90;;;;;;4404519;32;20140;-60
2023/10/25 07:09:20;;;;;;;3.72;1.00;;;10.90;99.90;;;;;;4403692;32;20069;-60
2023/10/25 07:11:46;;;;;;;2.92;1.27;;;10.90;99.90;;;;;;4404278;32;20086;-60
2023/10/25 07:14:11;;;;;;;4.95;1.25;;;10.90;99.90;;;;;;4408921;32;20146;-60
2023/10/25 07:16:37;;;;;;;0.93;0.88;;;10.90;99.90;;;;;;4405211;32;20132;-60
2023/10/25 07:19:03;;;;;;;1.45;1.00;;;10.90;99.90;;;;;;4402477;32;20101;-61
2023/10/25 07:21:28;;;;;;;1.60;1.02;;;10.80;99.90;;;;;;4407355;32;20517;-60
2023/10/25 07:23:54;;;;;;;0.75;0.73;;;10.90;99.90;;;;;;4409769;32;20078;-60
2023/10/25 07:26:19;;;;;;;2.83;0.90;;;10.80;99.90;;;;;;4407585;32;20338;-61
2023/10/25 07:28:45;;;;;;;12.82;1.17;;;10.90;99.90;;;;;;4405019;32;20085;-60
2023/10/25 07:31:10;;;;;;;0.98;0.95;;;10.90;99.90;;;;;;4391136;32;20082;-60
2023/10/25 07:33:35;;;;;;;2.12;1.77;;;11.00;99.90;;;;;;4406377;32;20533;-60
2023/10/25 07:36:01;;;;;;;14.30;1.20;;;11.00;99.90;;;;;;4401839;32;20070;-60
2023/10/25 07:38:26;;;;;;;1.60;0.95;;;11.00;99.90;;;;;;4398256;32;20487;-60
2023/10/25 07:40:52;;;;;;;4.32;1.40;;;11.00;99.90;;;;;;4405202;32;20074;-60
2023/10/25 07:43:18;;;;;;;0.68;0.68;;;11.10;99.90;;;;;;4406143;32;20081;-61
2023/10/25 07:45:43;;;;;;;1.58;1.05;;;11.10;99.90;;;;;;4406397;32;20120;-61
2023/10/25 07:48:09;;;;;;;1.67;0.90;;;11.10;99.90;;;;;;4407202;32;20461;-61
2023/10/25 07:50:34;;;;;;;1.17;1.08;;;11.20;99.90;;;;;;4403953;32;20070;-61
2023/10/25 07:53:00;;;;;;;1.08;0.88;;;11.30;99.90;;;;;;4407826;32;20096;-62
2023/10/25 07:55:25;;;;;;;0.93;0.88;;;11.40;99.90;;;;;;4407572;32;20142;-61
2023/10/25 07:57:51;;;;;;;1.23;0.95;;;11.30;99.90;;;;;;4399751;32;20108;-61
2023/10/25 08:00:16;;;;;;;4.82;1.55;;;11.30;99.90;;;;;;4405347;32;20082;-61
2023/10/25 08:02:42;;;;;;;1.87;1.58;;;11.30;99.90;;;;;;4407969;32;20074;-61
2023/10/25 08:05:08;;;;;;;0.60;0.60;;;11.30;99.90;;;;;;4407916;32;20065;-61
2023/10/25 08:07:36;;;;;;;3.53;1.02;;;11.40;99.90;;;;;;4405383;32;20564;-61
2023/10/25 08:10:03;;;;;;;3.20;1.35;;;11.40;99.90;;;;;;4405965;32;20114;-61
2023/10/25 08:12:29;;;;;;;0.90;0.90;;;11.40;99.90;;;;;;4407037;32;20140;-61
2023/10/25 08:14:55;;;;;;;6.80;0.95;;;11.40;99.90;;;;;;4408544;32;20548;-62
2023/10/25 08:17:20;;;;;;;0.50;0.50;;;11.40;99.90;;;;;;4403395;32;20101;-61
2023/10/25 08:19:45;;;;;;;0.50;0.50;;;11.40;99.90;;;;;;4405885;32;20596;-62
2023/10/25 08:22:11;;;;;;;1.02;0.90;;;11.40;99.90;;;;;;4406976;32;20073;-62
2023/10/25 08:24:36;;;;;;;0.75;0.75;;;11.30;99.90;;;;;;4408025;32;20117;-61
2023/10/25 08:27:02;;;;;;;2.03;1.52;;;11.40;99.90;;;;;;4403964;32;20157;-61
2023/10/25 08:29:27;;;;;;;3.47;0.82;;;11.60;99.90;;;;;;4408028;32;20074;-61
2023/10/25 08:31:53;;;;;;;2.33;1.42;;;11.60;99.90;;;;;;4407726;32;20512;-60
2023/10/25 08:34:18;;;;;;;1.73;1.15;;;11.60;99.90;;;;;;4405563;32;20742;-61
2023/10/25 08:36:44;;;;;;;1.45;0.68;;;11.60;99.90;;;;;;4396990;32;20082;-61
2023/10/25 08:39:09;;;;;;;0.68;0.68;;;11.70;99.90;;;;;;4403199;32;20085;-61
2023/10/25 08:41:36;;;;;;;0.70;0.70;;;11.70;99.90;;;;;;4406835;32;20101;-61
2023/10/25 08:44:02;;;;;;;5.15;0.93;;;11.90;99.90;;;;;;4409951;32;20085;-61
2023/10/25 08:46:30;;;;;;;1.90;0.80;;;11.90;99.90;;;;;;4409407;32;20082;-61
2023/10/25 08:48:56;;;;;;;2.53;0.82;;;12.00;99.90;;;;;;4406042;32;20066;-62
2023/10/25 08:51:22;;;;;;;1.12;0.93;;;12.10;99.90;;;;;;4405046;32;20077;-61
2023/10/25 08:53:50;;;;;;;1.42;1.33;;;12.10;99.90;;;;;;4409011;32;20136;-61
2023/10/25 08:56:15;;;;;;;1.05;0.95;;;12.20;99.90;;;;;;4403229;32;20082;-62
2023/10/25 08:58:41;;;;;;;0.70;0.70;;;12.20;99.90;;;;;;4402838;32;20078;-61
2023/10/25 09:01:06;;;;;;;1.52;0.70;;;12.20;99.90;;;;;;4407993;32;20120;-62
2023/10/25 09:03:34;;;;;;;3.45;1.67;;;12.20;99.90;;;;;;4404380;32;20882;-61
2023/10/25 09:06:01;;;;;;;1.90;1.17;;;12.20;99.90;;;;;;4402471;32;20825;-62
2023/10/25 09:08:27;;;;;;;0.40;0.40;;;12.20;99.90;;;;;;4406478;32;20070;-62
2023/10/25 09:11:03;;;;;;;1.23;1.12;;;12.30;99.90;;;;;;4394126;32;20390;-61
2023/10/25 09:13:32;;;;;;;1.52;0.98;;;12.30;99.90;;;;;;4405679;32;20093;-61
2023/10/25 09:16:16;;;;;;;1.85;0.70;;;12.20;99.90;;;;;;4395243;32;20393;-60
2023/10/25 09:18:41;;;;;;;1.37;0.73;;;12.20;99.90;;;;;;4399964;32;20097;-61
2023/10/25 09:21:09;;;;;;;1.35;0.98;;;12.20;99.90;;;;;;4408968;32;20110;-62
2023/10/25 09:23:35;;;;;;;5.45;0.70;;;12.30;99.90;;;;;;4411209;32;20128;-61
2023/10/25 09:26:12;;;;;;;0.70;0.70;;;12.20;99.90;;;;;;4406561;32;20560;-61
2023/10/25 09:28:38;;;;;;;5.50;0.82;;;12.40;99.90;;;;;;4406419;32;20105;-61
2023/10/25 09:31:20;;;;;;;1.58;0.80;;;12.40;99.90;;;;;;4407357;32;20437;-62
2023/10/25 09:33:47;;;;;;;1.65;0.80;;;12.40;99.90;;;;;;4406876;32;20133;-61
2023/10/25 09:36:13;;;;;;;0.52;0.52;;;12.50;99.90;;;;;;4401976;32;20098;-61
2023/10/25 09:38:39;;;;;;;0.62;0.50;;;12.50;99.90;;;;;;4404729;32;20101;-62
2023/10/25 09:41:08;;;;;;;2.42;0.88;;;12.60;99.90;;;;;;4395742;32;20065;-62
2023/10/25 09:43:34;;;;;;;6.93;1.35;;;12.70;99.90;;;;;;4406826;32;20082;-61
2023/10/25 09:46:05;;;;;;;7.62;0.68;;;12.70;99.90;;;;;;4408486;32;20082;-60
2023/10/25 09:48:36;;;;;;;1.20;0.93;;;12.70;99.90;;;;;;4409624;32;20288;-61
2023/10/25 09:51:08;;;;;;;2.17;1.00;;;12.70;99.90;;;;;;4404381;32;20109;-60
2023/10/25 09:53:43;;;;;;;1.35;0.62;;;12.80;99.90;;;;;;4408332;32;20082;-61
2023/10/25 09:56:09;;;;;;;1.35;0.98;;;13.00;99.90;;;;;;4391612;32;20936;-61
2023/10/25 09:58:36;;;;;;;0.55;0.55;;;13.00;99.90;;;;;;4400332;32;20841;-60
2023/10/25 10:01:03;;;;;;;1.17;0.90;;;13.00;99.90;;;;;;4392473;32;20540;-60
2023/10/25 10:03:52;;;;;;;1.30;0.80;;;13.00;99.90;;;;;;4408053;32;20100;-61
2023/10/25 10:06:39;;;;;;;0.50;0.50;;;13.10;99.90;;;;;;4406156;32;20077;-60
2023/10/25 10:09:14;;;;;;;5.75;0.95;;;13.10;99.90;;;;;;4404078;32;20141;-61
2023/10/25 10:11:47;;;;;;;1.90;0.93;;;13.10;99.90;;;;;;4406406;32;20074;-61
2023/10/25 10:14:30;;;;;;;0.70;0.70;;;13.00;99.90;;;;;;4407682;32;20085;-61
2023/10/25 10:16:58;;;;;;;1.23;0.85;;;12.90;99.90;;;;;;4401930;32;20521;-60
2023/10/25 10:19:24;;;;;;;1.37;0.90;;;13.00;99.90;;;;;;4401875;32;20105;-61
2023/10/25 10:22:11;;;;;;;2.08;0.80;;;13.10;99.90;;;;;;4407989;32;20135;-61
2023/10/25 10:24:56;;;;;;;0.80;0.80;;;13.10;99.90;;;;;;4406520;32;20581;-61
2023/10/25 10:27:26;;;;;;;4.65;1.00;;;13.20;99.90;;;;;;4405776;32;20132;-60
2023/10/25 10:29:52;;;;;;;7.90;0.75;;;13.20;99.90;;;;;;4393064;32;20086;-61
2023/10/25 10:32:17;;;;;;;1.02;0.93;;;13.20;99.90;;;;;;4393589;32;20070;-60
2023/10/25 10:34:48;;;;;;;4.82;0.80;;;13.10;99.90;;;;;;4409437;32;20106;-61
2023/10/25 10:37:24;;;;;;;0.50;0.50;;;13.20;99.90;;;;;;4400689;32;20344;-61
2023/10/25 10:40:00;;;;;;;3.75;1.00;;;13.20;99.90;;;;;;4406479;32;20098;-61
2023/10/25 10:42:31;;;;;;;8.73;0.80;;;13.40;99.90;;;;;;4407342;32;20062;-60
2023/10/25 10:44:58;;;;;;;1.45;1.20;;;13.50;99.90;;;;;;4405205;32;20114;-61
2023/10/25 10:47:53;;;;;;;0.65;0.65;;;13.50;99.90;;;;;;4393135;32;20105;-61
2023/10/25 10:50:21;;;;;;;0.60;0.60;;;13.70;99.90;;;;;;4407601;32;20077;-60
2023/10/25 10:52:48;;;;;;;1.35;0.68;;;13.80;99.90;;;;;;4407186;32;20486;-61
2023/10/25 10:55:17;;;;;;;0.50;0.50;;;14.00;99.90;;;;;;4408165;32;20541;-61
2023/10/25 10:57:43;;;;;;;0.75;0.75;;;14.20;99.90;;;;;;4404538;32;20081;-61
2023/10/25 11:02:37;;;;;;;0.50;0.50;;;14.40;99.90;;;;;;4408862;32;20054;-60
2023/10/25 11:05:04;;;;;;;0.60;0.60;;;14.40;99.90;;;;;;4405585;32;20456;-61
2023/10/25 11:07:30;;;;;;;0.40;0.40;;;14.40;99.90;;;;;;4386460;32;20097;-60
2023/10/25 11:09:56;;;;;;;0.60;0.60;;;14.30;99.90;;;;;;4407168;32;20500;-61
2023/10/25 11:12:23;;;;;;;1.55;0.77;;;14.20;99.90;;;;;;4406586;32;20130;-60
2023/10/25 11:14:48;;;;;;;0.62;0.62;;;14.20;99.90;;;;;;4404664;32;20065;-60
2023/10/25 11:17:14;;;;;;;2.90;0.62;;;14.20;99.90;;;;;;4401091;32;20097;-61
2023/10/25 11:19:45;;;;;;;0.85;0.80;;;14.30;99.90;;;;;;4403240;32;20564;-60
2023/10/25 11:22:11;;;;;;;0.85;0.85;;;14.80;99.90;;;;;;4408631;32;20081;-60
2023/10/25 11:24:37;;;;;;;0.52;0.52;;;15.30;99.90;;;;;;4407117;32;20153;-61
2023/10/25 11:27:03;;;;;;;0.90;0.85;;;15.40;99.90;;;;;;4391582;32;20058;-61
2023/10/25 11:29:31;;;;;;;1.00;0.82;;;15.90;99.90;;;;;;4404709;32;20093;-61
2023/10/25 11:32:01;;;;;;;3.25;0.93;;;16.30;99.90;;;;;;4390299;32;20454;-61
2023/10/25 11:34:32;;;;;;;0.55;0.55;;;16.60;99.90;;;;;;4405402;32;20110;-61
2023/10/25 11:37:00;;;;;;;1.85;1.15;;;16.90;99.90;;;;;;4387256;32;20609;-61
2023/10/25 11:39:25;;;;;;;0.50;0.50;;;17.10;99.90;;;;;;4401777;32;20553;-61
2023/10/25 11:41:51;;;;;;;0.47;0.47;;;16.80;99.90;;;;;;4407420;32;20101;-61
2023/10/25 11:44:24;;;;;;;0.77;0.55;;;17.00;99.90;;;;;;4407784;32;20082;-61
2023/10/25 11:46:51;;;;;;;2.10;0.70;;;17.50;99.90;;;;;;4401956;32;20506;-61
2023/10/25 11:49:20;;;;;;;2.62;1.50;;;18.00;99.90;;;;;;4406075;32;78530;-61
2023/10/25 11:51:46;;;;;;;0.40;0.40;;;18.10;99.90;;;;;;4405447;32;20125;-61
2023/10/25 11:54:12;;;;;;;0.47;0.40;;;17.80;99.90;;;;;;4404884;32;20077;-61
2023/10/25 11:56:39;;;;;;;0.30;0.30;;;17.80;99.90;;;;;;4402683;32;20167;-61
2023/10/25 11:59:04;;;;;;;0.30;0.30;;;17.80;99.90;;;;;;4400635;32;20081;-61
2023/10/25 12:01:30;;;;;;;0.45;0.45;;;17.90;99.90;;;;;;4406920;32;20065;-62
2023/10/25 12:03:55;;;;;;;2.10;1.27;;;18.00;99.90;;;;;;4407138;32;20105;-61
2023/10/25 12:06:20;;;;;;;0.47;0.47;;;18.10;99.90;;;;;;4406967;32;20078;-62
2023/10/25 12:08:46;;;;;;;0.50;0.50;;;18.10;99.90;;;;;;4406253;32;20077;-62
2023/10/25 12:11:11;;;;;;;0.43;0.43;;;17.80;99.90;;;;;;4406273;32;20577;-62
2023/10/25 12:13:39;;;;;;;0.30;0.30;;;17.50;99.90;;;;;;4403606;32;20098;-62
2023/10/25 12:16:05;;;;;;;0.50;0.50;;;17.20;99.90;;;;;;4403039;32;20077;-61
2023/10/25 12:18:33;;;;;;;0.55;0.50;;;16.60;99.90;;;;;;4397507;32;20102;-62
2023/10/25 12:21:00;;;;;;;1.48;0.68;;;16.30;99.90;;;;;;4404216;32;20090;-62
2023/10/25 12:23:25;;;;;;;1.08;0.73;;;16.20;99.90;;;;;;4405564;32;20105;-62
2023/10/25 12:25:51;;;;;;;0.57;0.57;;;16.10;99.90;;;;;;4402745;32;20308;-62
2023/10/25 12:28:17;;;;;;;0.40;0.40;;;15.90;99.90;;;;;;4404229;32;20097;-62
2023/10/25 12:30:42;;;;;;;0.30;0.30;;;15.90;99.90;;;;;;4406618;32;20069;-62
2023/10/25 12:33:08;;;;;;;2.15;1.23;;;16.50;99.90;;;;;;4405904;32;20113;-61
2023/10/25 12:35:33;;;;;;;5.18;1.20;;;17.00;99.90;;;;;;4402178;32;20069;-62
2023/10/25 12:37:59;;;;;;;0.40;0.40;;;17.50;99.90;;;;;;4394687;32;20085;-62
2023/10/25 12:40:25;;;;;;;0.62;0.60;;;18.10;99.90;;;;;;4406110;32;20541;-62
2023/10/25 12:42:50;;;;;;;0.50;0.50;;;17.80;99.90;;;;;;4406751;32;20558;-62
2023/10/25 12:45:16;;;;;;;0.55;0.55;;;17.40;99.90;;;;;;4401431;32;20360;-61
2023/10/25 12:47:41;;;;;;;1.45;0.50;;;17.00;99.90;;;;;;4398515;32;20529;-61